Flight Track Log - Related Links

Times and Time Zones

All times are in EDT time to prevent confusion due to time zone crossing. See the GJS3618 flight status page for this flight to view local times or setup timezone preferences in your user account.

Time Position Orientation Groundspeed Altitude Reporting Facility
EDT Latitude Longitude Course Direction KTS MPH feet Rate Location/Type
Sun 11:46:11 PM 41.9689 -87.9494 269° West 174 200 38,000  Level Chicago Center
Sun 11:47:12 PM 41.9681 -88.0189 269° West 208 239 3,300 -16,082 Descending Chicago Center
Sun 11:48:13 PM 41.9647 -88.1081 267° West 227 261 5,300 2,262 Climbing Chicago Center
Sun 11:49:14 PM 41.9572 -88.2075 264° West 261 300 7,900 2,557 Climbing Chicago Center
Sun 11:50:15 PM 41.9464 -88.3294 263° West 275 316 10,500 1,869 Climbing Chicago Center
Sun 11:51:16 PM 41.9419 -88.4436 267° West 303 349 11,700 1,377 Climbing Chicago Center
Sun 11:52:17 PM 41.9583 -88.5717 280° West 350 403 13,300 1,672 Climbing Chicago Center
Sun 11:53:18 PM 41.9767 -88.7042 281° West 362 417 15,100 1,869 Climbing Chicago Center
Sun 11:54:19 PM 41.9928 -88.8397 279° West 371 427 17,100 1,820 Climbing Chicago Center
Sun 11:55:20 PM 42.0086 -88.9725 279° West 365 420 18,800 1,475 Climbing Chicago Center
Sun 11:56:21 PM 42.0233 -89.1119 278° West 374 430 20,100 1,180 Climbing Chicago Center
Sun 11:57:22 PM 42.0428 -89.2564 280° West 397 457 21,200 1,426 Climbing Chicago Center
Sun 11:58:23 PM 42.0667 -89.4347 280° West 406 467 23,000 1,377 Climbing Chicago Center
Sun 11:59:24 PM 42.0861 -89.5717 281° West 410 472 24,000 1,033 Climbing Chicago Center
Mon 12:00:25 AM 42.1114 -89.7275 282° West 421 484 25,100 1,131 Climbing Chicago Center
Mon 12:01:26 AM 42.1358 -89.8833 282° West 425 489 26,300 1,131 Climbing Chicago Center
Mon 12:02:27 AM 42.1631 -90.0336 284° West 429 494 27,400 1,082 Climbing Chicago Center
Mon 12:03:28 AM 42.2122 -90.2111 291° West 426 490 28,500 836 Climbing Chicago Center
Mon 12:04:29 AM 42.2556 -90.3631 291° West 435 501 29,100 694 Climbing Chicago Center
Mon 12:05:29 AM 42.2483 -90.5264 267° West 441 507 29,900 744 Climbing Chicago Center
Mon 12:06:30 AM 42.2367 -90.6908 265° West 442 509 30,600 689 Climbing Chicago Center
Mon 12:07:31 AM 42.2261 -90.8558 265° West 444 511 31,300 689 Climbing Chicago Center
Mon 12:08:32 AM 42.2144 -91.0208 265° West 444 511 32,000 689 Climbing Chicago Center
Mon 12:09:33 AM 42.2144 -91.1858 270° West 442 509 32,700 836 Climbing Chicago Center
Mon 12:10:34 AM 42.2589 -91.3419 291° West 446 513 33,700 639 Climbing Chicago Center
Mon 12:11:35 AM 42.3033 -91.4936 292° West 437 503 34,000 344 Climbing Chicago Center
Mon 12:12:36 AM 42.3475 -91.6433 292° West 431 496 34,400 639 Climbing Chicago Center
Mon 12:13:37 AM 42.3914 -91.7925 292° West 428 493 35,300 744 Climbing Chicago Center
Mon 12:14:37 AM 42.4333 -91.9389 291° West 419 482 35,900 347 Climbing Chicago Center
Mon 12:15:38 AM 42.4842 -92.1169 291° West 422 486 36,000 49 Climbing Chicago Center
Mon 12:16:39 AM 42.5278 -92.2636 292° West 422 486 36,000  Level Chicago Center
Mon 12:17:40 AM 42.5686 -92.4106 291° West 419 482 36,000  Level Chicago Center
Mon 12:18:41 AM 42.6089 -92.5550 291° West 413 475 36,000  Level Chicago Center
Mon 12:19:42 AM 42.6489 -92.6997 291° West 412 474 36,000  Level Chicago Center
Mon 12:20:43 AM 42.6911 -92.8469 291° West 416 479 36,000  Level Chicago Center
Mon 12:21:44 AM 42.7336 -92.9936 292° West 420 483 36,000  Level Chicago Center
Mon 12:22:44 AM 42.7739 -93.1397 291° West 417 480 36,000  Level Chicago Center
Mon 12:23:26 AM 42.8042 -93.2589 289° West 419 482 36,000  Level Minneapolis Center
Mon 12:24:26 AM 42.8453 -93.4078 291° West 422 486 36,000  Level Minneapolis Center
Mon 12:25:27 AM 42.8886 -93.5561 292° West 423 487 36,000  Level Minneapolis Center
Mon 12:26:28 AM 42.9281 -93.7053 290° West 422 486 36,000  Level Minneapolis Center
Mon 12:27:29 AM 42.9689 -93.8556 290° West 426 490 36,000  Level Minneapolis Center
Mon 12:28:30 AM 43.0094 -94.0047 290° West 423 487 36,000  Level Minneapolis Center
Mon 12:29:31 AM 43.0456 -94.1539 288° West 419 482 36,000  Level Minneapolis Center
Mon 12:30:31 AM 43.0886 -94.3208 290° West 423 487 36,000  Level Minneapolis Center
Mon 12:31:32 AM 43.1297 -94.4689 291° West 418 481 36,000  Level Minneapolis Center
Mon 12:32:33 AM 43.1706 -94.6189 291° West 421 484 36,000  Level Minneapolis Center
Mon 12:33:34 AM 43.2100 -94.7683 290° West 418 481 36,000  Level Minneapolis Center
Mon 12:34:34 AM 43.2489 -94.9189 290° West 420 483 36,000  Level Minneapolis Center
Mon 12:35:35 AM 43.2872 -95.0719 289° West 424 488 36,000  Level Minneapolis Center
Mon 12:36:36 AM 43.3261 -95.2225 290° West 421 484 36,000  Level Minneapolis Center
Mon 12:37:36 AM 43.3636 -95.3717 289° West 415 478 36,000  Level Minneapolis Center
Mon 12:38:37 AM 43.4017 -95.5233 289° West 418 481 36,000  Level Minneapolis Center
Mon 12:39:38 AM 43.4392 -95.6739 289° West 417 480 36,000  Level Minneapolis Center
Mon 12:40:38 AM 43.4761 -95.8236 289° West 415 478 36,000  Level Minneapolis Center
Mon 12:41:39 AM 43.5136 -95.9758 289° West 417 480 36,000  Level Minneapolis Center
Mon 12:42:40 AM 43.5506 -96.1258 289° West 414 476 36,000  Level Minneapolis Center
Mon 12:43:40 AM 43.5872 -96.2772 289° West 415 478 36,000  Level Minneapolis Center
Mon 12:44:41 AM 43.6239 -96.4292 288° West 415 478 36,000  Level Minneapolis Center
Mon 12:45:42 AM 43.6675 -96.6125 288° West 416 479 36,000  Level Minneapolis Center
Mon 12:46:42 AM 43.7039 -96.7633 289° West 414 476 36,000  Level Minneapolis Center
Mon 12:47:43 AM 43.7394 -96.9142 288° West 411 473 36,000  Level Minneapolis Center
Mon 12:48:43 AM 43.7747 -97.0653 288° West 411 473 36,000  Level Minneapolis Center
Mon 12:49:44 AM 43.8092 -97.2167 288° West 412 474 36,000  Level Minneapolis Center
Mon 12:50:45 AM 43.8442 -97.3678 288° West 412 474 36,000  Level Minneapolis Center
Mon 12:51:45 AM 43.8789 -97.5164 288° West 408 470 36,000  Level Minneapolis Center
Mon 12:52:46 AM 43.9131 -97.6661 288° West 407 468 36,000  Level Minneapolis Center
Mon 12:53:46 AM 43.9469 -97.8150 288° West 407 468 36,000  Level Minneapolis Center
Mon 12:54:47 AM 43.9800 -97.9644 287° West 405 466 36,000  Level Minneapolis Center
Mon 12:55:47 AM 44.0153 -98.1133 288° West 407 468 36,000  Level Minneapolis Center
Mon 12:56:48 AM 44.0472 -98.2611 287° West 401 461 36,000  Level Minneapolis Center
Mon 12:57:48 AM 44.0803 -98.4081 287° West 399 459 36,000  Level Minneapolis Center
Mon 12:58:49 AM 44.1125 -98.5567 287° West 401 461 36,000  Level Minneapolis Center
Mon 12:59:49 AM 44.1447 -98.7008 287° West 394 453 36,000  Level Minneapolis Center
Mon 01:00:50 AM 44.1739 -98.8450 286° West 395 455 36,000  Level Minneapolis Center
Mon 01:01:50 AM 44.2067 -98.9908 287° West 395 455 36,000  Level Minneapolis Center
Mon 01:02:50 AM 44.2381 -99.1356 287° West 390 449 36,000  Level Minneapolis Center
Mon 01:03:51 AM 44.2689 -99.2814 286° West 391 450 36,000  Level Minneapolis Center
Mon 01:04:51 AM 44.2997 -99.4250 287° West 387 445 36,000  Level Minneapolis Center
Mon 01:05:52 AM 44.3292 -99.5728 286° West 389 448 36,000  Level Minneapolis Center
Mon 01:06:52 AM 44.3592 -99.7208 286° West 392 451 36,000  Level Minneapolis Center
Mon 01:07:53 AM 44.3897 -99.8686 286° West 394 453 36,000  Level Minneapolis Center
Mon 01:08:53 AM 44.4194 -100.0161 286° West 394 453 36,000  Level Minneapolis Center
Mon 01:09:53 AM 44.4492 -100.1625 286° West 391 450 36,000  Level Minneapolis Center
Mon 01:10:54 AM 44.4783 -100.3094 286° West 391 450 36,000  Level Minneapolis Center
Mon 01:11:54 AM 44.5081 -100.4561 286° West 389 448 36,000  Level Minneapolis Center
Mon 01:12:55 AM 44.5364 -100.6031 285° West 389 448 36,000  Level Minneapolis Center
Mon 01:13:55 AM 44.5656 -100.7503 286° West 390 449 36,000  Level Minneapolis Center
Mon 01:14:55 AM 44.5908 -100.8975 284° West 389 448 36,000  Level Minneapolis Center
Mon 01:15:56 AM 44.6147 -101.0472 283° West 390 449 36,000  Level Minneapolis Center
Mon 01:16:56 AM 44.6392 -101.1972 283° West 392 451 36,000  Level Minneapolis Center
Mon 01:17:56 AM 44.6639 -101.3467 283° West 393 452 36,000  Level Minneapolis Center
Mon 01:18:57 AM 44.6897 -101.4994 283° West 397 457 36,000  Level Minneapolis Center
Mon 01:19:57 AM 44.7133 -101.6489 283° West 395 455 36,000  Level Minneapolis Center
Mon 01:20:58 AM 44.7369 -101.8000 282° West 395 455 36,000  Level Minneapolis Center
Mon 01:21:58 AM 44.7606 -101.9514 282° West 396 456 36,000  Level Minneapolis Center
Mon 01:22:58 AM 44.7831 -102.1042 282° West 397 457 36,000  Level Minneapolis Center
Mon 01:23:58 AM 44.8050 -102.2569 281° West 401 461 36,000  Level Denver Center
Mon 01:24:59 AM 44.8283 -102.4119 282° West 403 464 36,000  Level Denver Center
Mon 01:26:12 AM 44.8511 -102.5656 282° West 401 461 36,000  Level Denver Center
Mon 01:27:13 AM 44.8797 -102.7511 282° West 403 464 36,000  Level Denver Center
Mon 01:28:14 AM 44.9061 -102.9394 281° West 407 468 36,000  Level Denver Center
Mon 01:29:24 AM 44.9292 -103.0961 282° West 408 470 36,000  Level Minneapolis Center
Mon 01:30:05 AM 44.9458 -103.2153 281° West 409 471 36,000  Level Salt Lake Center
Mon 01:31:06 AM 44.9669 -103.3650 281° West 409 471 36,000  Level Salt Lake Center
Mon 01:32:07 AM 44.9917 -103.5419 281° West 411 473 36,000  Level Salt Lake Center
Mon 01:33:08 AM 45.0125 -103.6917 281° West 410 472 36,000  Level Salt Lake Center
Mon 01:34:20 AM 45.0406 -103.8997 281° West 411 473 36,000  Level Denver Center
Mon 01:35:21 AM 45.0608 -104.0514 281° West 411 473 36,000  Level Denver Center
Mon 01:36:11 AM 45.0772 -104.1733 281° West 412 474 36,000  Level Salt Lake Center
Mon 01:37:12 AM 45.1003 -104.3525 280° West 413 475 36,000  Level Salt Lake Center
Mon 01:38:13 AM 45.1208 -104.5069 281° West 416 479 36,000  Level Salt Lake Center
Mon 01:39:14 AM 45.1411 -104.6614 281° West 417 480 36,000  Level Salt Lake Center
Mon 01:40:15 AM 45.1625 -104.8400 280° West 415 478 36,000  Level Salt Lake Center
Mon 01:41:16 AM 45.1831 -104.9958 281° West 417 480 36,000  Level Salt Lake Center
Mon 01:42:17 AM 45.2019 -105.1525 280° West 420 483 36,000  Level Salt Lake Center
Mon 01:43:18 AM 45.2244 -105.3328 280° West 418 481 36,000  Level Salt Lake Center
Mon 01:44:18 AM 45.2428 -105.4897 279° West 420 483 36,000  Level Salt Lake Center
Mon 01:45:19 AM 45.2614 -105.6469 280° West 422 486 36,000 -49 Level Salt Lake Center
Mon 01:46:20 AM 45.2806 -105.8078 280° West 422 486 35,900  Descending Salt Lake Center
Mon 01:47:21 AM 45.2994 -105.9717 279° West 420 483 36,000 49 Climbing Salt Lake Center
Mon 01:48:22 AM 45.3183 -106.1347 279° West 420 483 36,000  Level Salt Lake Center
Mon 01:49:23 AM 45.3367 -106.2936 279° West 414 476 36,000  Level Salt Lake Center
Mon 01:50:24 AM 45.3581 -106.4869 279° West 413 475 36,000  Level Salt Lake Center
Mon 01:51:25 AM 45.3758 -106.6464 279° West 411 473 36,000  Level Salt Lake Center
Mon 01:52:26 AM 45.3931 -106.8058 279° West 409 471 36,000  Level Salt Lake Center
Mon 01:53:27 AM 45.4103 -106.9658 279° West 409 471 36,000  Level Salt Lake Center
Mon 01:54:27 AM 45.4264 -107.1256 278° West 409 471 36,000  Level Salt Lake Center
Mon 01:55:28 AM 45.4433 -107.2936 278° West 407 468 36,000  Level Salt Lake Center
Mon 01:56:29 AM 45.4603 -107.4528 279° West 411 473 36,000  Level Salt Lake Center
Mon 01:57:30 AM 45.4761 -107.6125 278° West 413 475 36,000 -492 Level Salt Lake Center
Mon 01:58:31 AM 45.4939 -107.7856 278° West 417 480 35,000 -1,230 Descending Salt Lake Center
Mon 01:59:32 AM 45.5097 -107.9464 278° West 414 476 33,500 -1,488 Descending Salt Lake Center
Mon 02:00:32 AM 45.5253 -108.1064 278° West 412 474 32,000 -1,488 Descending Salt Lake Center
Mon 02:01:33 AM 45.5403 -108.2678 278° West 415 478 30,500 -1,525 Descending Salt Lake Center
Mon 02:02:34 AM 45.5567 -108.4492 277° West 426 490 28,900 -1,525 Descending Salt Lake Center
Mon 02:03:35 AM 45.5728 -108.6183 278° West 434 499 27,400 -1,475 Descending Salt Lake Center
Mon 02:04:36 AM 45.5889 -108.7842 278° West 426 490 25,900 -1,488 Descending Salt Lake Center
Mon 02:05:36 AM 45.6031 -108.9447 277° West 414 476 24,400 -1,537 Descending Salt Lake Center
Mon 02:06:37 AM 45.6183 -109.1136 277° West 401 461 22,800 -1,525 Descending Salt Lake Center
Mon 02:07:38 AM 45.6317 -109.2664 277° West 392 451 21,300 -1,475 Descending Salt Lake Center
Mon 02:08:39 AM 45.6442 -109.4186 277° West 391 450 19,800 -1,475 Descending Salt Lake Center
Mon 02:09:40 AM 45.6567 -109.5694 277° West 388 447 18,300 -1,438 Descending Salt Lake Center
Mon 02:10:40 AM 45.6708 -109.7319 277° West 386 444 16,900 -1,438 Descending Salt Lake Center
Mon 02:11:41 AM 45.6844 -109.8828 277° West 378 435 15,400 -1,426 Descending Salt Lake Center
Mon 02:12:42 AM 45.6939 -110.0131 276° West 364 419 14,000 -1,377 Descending Salt Lake Center
Mon 02:13:43 AM 45.7019 -110.1381 275° West 348 400 12,600 -984 Descending Salt Lake Center
Mon 02:14:44 AM 45.7133 -110.2900 276° West 343 395 12,000 -246 Descending Salt Lake Center
Mon 02:15:45 AM 45.7236 -110.4247 276° West 348 400 12,100 50 Climbing Salt Lake Center
Mon 02:16:45 AM 45.7342 -110.5583 277° West 351 404 12,100 -50 Level Salt Lake Center
Mon 02:17:46 AM 45.7467 -110.7036 277° West 351 404 12,000 -49 Descending Salt Lake Center
Mon 02:18:47 AM 45.7558 -110.8389 276° West 339 390 12,000 -148 Level Salt Lake Center
Mon 02:19:48 AM 45.7794 -110.9503 287° West 300 345 11,700 -893 Descending Salt Lake Center
Mon 02:20:48 AM 45.8264 -111.0361 308° West 285 328 10,200 -1,388 Descending Salt Lake Center
Mon 02:21:49 AM 45.8756 -111.1133 312° West 275 316 8,900 -1,180 Descending Salt Lake Center
Mon 02:22:50 AM 45.9072 -111.1836 303° West 241 277 7,800 -1,279 Descending Salt Lake Center
Mon 02:23:51 AM 45.8794 -111.2469 238° Southwest 207 238 6,300 -1,041 Descending Salt Lake Center
Mon 02:24:51 AM 45.8356 -111.2342 169° South 165 190 5,700 -645 Descending Salt Lake Center
Mon 02:25:52 AM 45.8056 -111.1919 136° Southeast 156 180 5,000 -590 Descending Salt Lake Center
Mon 02:26:53 AM 45.7819 -111.1589 136° Southeast 154 177 4,500 -492 Descending Salt Lake Center

Login

Don't have an account? Register now (free) for customized features, flight alerts, and more!